Time;durP1;ratioP1;P1;durP2;ratioP2;P2;SDS_P1;SDS_P2;PMS_P1;PMS_P2;Temp;Humidity;BMP_temperature;BMP_pressure;BME280_temperature;BME280_humidity;BME280_pressure;Samples;Min_cycle;Max_cycle;Signal;HPM_P1;HPM_P2
2023/12/16 00:01:49;;;;;;;7.32;2.08;;;13.40;99.90;;;;;;4955030;28;20074;-41
2023/12/16 00:04:14;;;;;;;6.57;2.00;;;13.80;99.90;;;;;;4962450;28;20035;-35
2023/12/16 00:06:40;;;;;;;7.68;2.05;;;13.50;99.90;;;;;;4958426;28;20038;-35
2023/12/16 00:09:06;;;;;;;9.10;2.40;;;13.40;99.90;;;;;;4967623;28;20038;-42
2023/12/16 00:11:31;;;;;;;6.10;1.67;;;13.70;99.90;;;;;;4958854;28;20585;-37
2023/12/16 00:13:57;;;;;;;7.47;2.38;;;14.00;99.90;;;;;;4961766;28;20098;-35
2023/12/16 00:16:26;;;;;;;8.15;2.30;;;13.20;99.90;;;;;;4974495;28;20093;-35
2023/12/16 00:18:52;;;;;;;6.85;2.42;;;13.10;99.90;;;;;;4951534;28;20039;-35
2023/12/16 00:21:18;;;;;;;6.70;2.10;;;13.90;99.90;;;;;;4957790;28;20475;-34
2023/12/16 00:23:43;;;;;;;7.35;2.75;;;13.60;99.90;;;;;;4962154;28;20122;-35
2023/12/16 00:26:09;;;;;;;5.75;2.15;;;13.50;99.90;;;;;;4968306;28;20518;-35
2023/12/16 00:28:35;;;;;;;6.70;1.98;;;13.80;99.90;;;;;;4969921;28;20037;-35
2023/12/16 00:31:00;;;;;;;6.00;1.88;;;13.90;99.90;;;;;;4969463;28;20035;-38
2023/12/16 00:33:26;;;;;;;7.55;2.00;;;13.80;99.90;;;;;;4969725;28;20038;-34
2023/12/16 00:35:52;;;;;;;7.35;2.10;;;13.20;99.90;;;;;;4970336;28;20035;-36
2023/12/16 00:38:17;;;;;;;5.88;1.90;;;13.70;99.90;;;;;;4968792;28;20066;-37
2023/12/16 00:40:43;;;;;;;6.82;1.75;;;13.80;99.90;;;;;;4969542;28;20513;-34
2023/12/16 00:43:08;;;;;;;6.60;1.98;;;13.80;99.90;;;;;;4964828;28;20139;-36
2023/12/16 00:45:34;;;;;;;5.68;2.05;;;14.40;99.90;;;;;;4969670;28;20059;-35
2023/12/16 00:47:59;;;;;;;6.25;1.83;;;14.30;99.90;;;;;;4968756;28;20040;-34
2023/12/16 00:50:25;;;;;;;6.18;1.92;;;13.40;99.90;;;;;;4967168;28;20039;-35
2023/12/16 00:52:51;;;;;;;5.25;1.70;;;13.00;99.90;;;;;;4965565;28;22316;-35
2023/12/16 00:55:16;;;;;;;5.90;1.63;;;13.80;99.90;;;;;;4966514;28;20122;-35
2023/12/16 00:57:42;;;;;;;5.43;2.03;;;13.20;99.90;;;;;;4949101;28;20043;-35
2023/12/16 01:00:08;;;;;;;6.82;1.88;;;13.60;99.90;;;;;;4949547;28;20047;-34
2023/12/16 01:02:34;;;;;;;5.97;1.77;;;14.00;99.90;;;;;;4970828;28;20039;-36
2023/12/16 01:04:59;;;;;;;8.18;2.55;;;13.30;99.90;;;;;;4970064;28;20046;-39
2023/12/16 01:07:25;;;;;;;7.65;2.20;;;13.20;99.90;;;;;;4972188;28;20097;-35
2023/12/16 01:09:51;;;;;;;6.60;1.95;;;13.70;99.90;;;;;;4971566;28;20152;-36
2023/12/16 01:12:17;;;;;;;6.72;2.00;;;13.20;99.90;;;;;;4971166;28;20072;-36
2023/12/16 01:14:43;;;;;;;6.22;1.60;;;13.50;99.90;;;;;;4971232;28;20046;-36
2023/12/16 01:17:08;;;;;;;7.93;1.70;;;13.00;99.90;;;;;;4972061;28;20134;-34
2023/12/16 01:19:34;;;;;;;7.25;1.80;;;13.90;99.90;;;;;;4968812;28;20122;-35
2023/12/16 01:21:59;;;;;;;7.68;2.22;;;13.70;99.90;;;;;;4968070;28;20455;-37
2023/12/16 01:24:25;;;;;;;9.15;2.10;;;13.50;99.90;;;;;;4985821;28;20588;-34
2023/12/16 01:26:51;;;;;;;7.07;1.98;;;13.90;99.90;;;;;;4972034;28;20063;-35
2023/12/16 01:29:17;;;;;;;5.47;1.90;;;13.60;99.90;;;;;;4986332;28;20154;-35
2023/12/16 01:31:42;;;;;;;6.82;1.60;;;13.50;99.90;;;;;;4972487;28;20038;-36
2023/12/16 01:34:08;;;;;;;5.13;1.65;;;13.30;99.90;;;;;;4971018;28;20043;-38
2023/12/16 01:36:34;;;;;;;6.70;1.90;;;13.60;99.90;;;;;;4970334;28;20031;-35
2023/12/16 01:39:00;;;;;;;5.13;1.40;;;13.70;99.90;;;;;;4969952;28;20398;-38
2023/12/16 01:41:25;;;;;;;6.18;1.70;;;13.40;99.90;;;;;;4972186;28;20069;-35
2023/12/16 01:43:51;;;;;;;5.10;1.60;;;13.70;99.90;;;;;;4970641;28;20121;-36
2023/12/16 01:46:18;;;;;;;8.40;1.63;;;13.20;99.90;;;;;;4969777;28;20046;-38
2023/12/16 01:48:45;;;;;;;5.18;1.65;;;13.50;99.90;;;;;;4972444;28;20030;-38
2023/12/16 01:51:11;;;;;;;8.35;1.83;;;13.60;99.90;;;;;;4970943;28;20090;-35
2023/12/16 01:53:38;;;;;;;6.43;1.88;;;13.40;99.90;;;;;;4967936;28;20114;-34
2023/12/16 01:56:05;;;;;;;7.43;2.17;;;13.60;99.90;;;;;;4958527;28;20174;-35
2023/12/16 01:58:32;;;;;;;7.47;1.80;;;13.70;99.90;;;;;;4963883;28;20045;-35
2023/12/16 02:00:57;;;;;;;5.93;1.80;;;13.60;99.90;;;;;;4972234;28;20106;-35
2023/12/16 02:03:27;;;;;;;5.20;1.70;;;13.40;99.90;;;;;;4971797;28;20130;-35
2023/12/16 02:05:52;;;;;;;9.35;2.13;;;13.70;99.90;;;;;;4971484;28;20105;-37
2023/12/16 02:08:18;;;;;;;5.25;1.63;;;13.70;99.90;;;;;;4986003;28;20480;-36
2023/12/16 02:10:44;;;;;;;9.10;2.85;;;13.30;99.90;;;;;;4969473;28;20035;-35
2023/12/16 02:13:10;;;;;;;5.63;1.50;;;12.90;99.90;;;;;;4968785;28;20047;-34
2023/12/16 02:15:35;;;;;;;7.35;1.95;;;13.10;99.90;;;;;;4966587;28;20062;-38
2023/12/16 02:18:01;;;;;;;5.25;1.60;;;13.10;99.90;;;;;;4970146;28;20113;-35
2023/12/16 02:20:27;;;;;;;6.25;1.88;;;13.40;99.90;;;;;;4968606;28;20406;-35
2023/12/16 02:22:54;;;;;;;6.30;1.70;;;13.30;99.90;;;;;;4972179;28;20043;-39
2023/12/16 02:25:19;;;;;;;8.48;1.83;;;13.20;99.90;;;;;;4969600;28;20043;-36
2023/12/16 02:27:46;;;;;;;5.68;1.60;;;13.00;99.90;;;;;;4969457;28;20124;-35
2023/12/16 02:30:12;;;;;;;10.13;2.28;;;13.60;99.90;;;;;;4969123;28;20092;-35
2023/12/16 02:32:38;;;;;;;8.40;1.90;;;12.70;99.90;;;;;;4970806;28;20122;-38
2023/12/16 02:35:04;;;;;;;10.18;2.15;;;12.80;99.90;;;;;;4967260;28;20047;-35
2023/12/16 02:37:30;;;;;;;6.57;1.63;;;12.90;99.90;;;;;;4969289;28;20039;-35
2023/12/16 02:39:56;;;;;;;7.20;1.75;;;13.50;99.90;;;;;;4968537;28;20418;-36
2023/12/16 02:42:21;;;;;;;6.35;1.77;;;13.40;99.90;;;;;;4970082;28;20043;-35
2023/12/16 02:44:47;;;;;;;6.90;1.90;;;12.80;99.90;;;;;;4973607;28;20031;-38
2023/12/16 02:47:13;;;;;;;8.88;2.13;;;13.20;99.90;;;;;;4963442;28;20078;-35
2023/12/16 02:49:38;;;;;;;5.55;1.70;;;13.20;99.90;;;;;;4970015;28;20455;-36
2023/12/16 02:52:04;;;;;;;5.95;1.70;;;12.80;99.90;;;;;;4968067;28;20045;-35
2023/12/16 02:54:30;;;;;;;8.38;1.98;;;13.00;99.90;;;;;;4966706;28;20502;-37
2023/12/16 02:56:55;;;;;;;6.07;1.80;;;12.90;99.90;;;;;;4966651;28;20042;-34
2023/12/16 02:59:21;;;;;;;8.15;2.25;;;12.80;99.90;;;;;;4968579;28;20039;-35
2023/12/16 03:01:47;;;;;;;9.30;2.20;;;12.80;99.90;;;;;;4971884;28;20034;-39
2023/12/16 03:04:12;;;;;;;7.38;2.05;;;13.10;99.90;;;;;;4968355;28;20046;-35
2023/12/16 03:06:47;;;;;;;7.85;1.88;;;12.70;99.90;;;;;;4967963;28;20058;-35
2023/12/16 03:09:12;;;;;;;;;;;12.80;99.90;;;;;;4967523;28;20066;-35
2023/12/16 03:11:39;;;;;;;6.93;1.80;;;12.70;99.90;;;;;;4959870;28;19950;-35
2023/12/16 03:14:05;;;;;;;7.47;2.00;;;12.60;99.90;;;;;;4964849;28;20031;-35
2023/12/16 03:16:33;;;;;;;8.00;2.00;;;12.80;99.90;;;;;;4957783;28;20066;-40
2023/12/16 03:18:59;;;;;;;8.00;2.03;;;12.80;99.90;;;;;;4980630;28;20042;-37
2023/12/16 03:21:24;;;;;;;6.60;1.90;;;12.50;99.90;;;;;;4965359;28;20035;-34
2023/12/16 03:23:50;;;;;;;7.57;2.20;;;13.50;99.90;;;;;;4967364;28;20045;-39
2023/12/16 03:26:15;;;;;;;8.05;2.45;;;12.90;99.90;;;;;;4964816;28;22029;-34
2023/12/16 03:28:41;;;;;;;6.63;1.75;;;12.60;99.90;;;;;;4966279;28;20080;-39
2023/12/16 03:31:06;;;;;;;8.70;2.08;;;12.90;99.90;;;;;;4967435;28;20108;-36
2023/12/16 03:33:32;;;;;;;8.27;2.45;;;12.60;99.90;;;;;;4969807;28;20034;-35
2023/12/16 03:35:58;;;;;;;11.27;2.42;;;12.60;99.90;;;;;;4969441;28;20134;-35
2023/12/16 03:38:23;;;;;;;7.07;1.92;;;12.60;99.90;;;;;;4966682;28;20530;-34
2023/12/16 03:40:49;;;;;;;7.32;1.83;;;12.90;99.90;;;;;;4969368;28;20043;-37
2023/12/16 03:43:16;;;;;;;9.38;2.30;;;12.80;99.90;;;;;;4970227;28;20118;-35
2023/12/16 03:45:42;;;;;;;7.65;1.98;;;13.00;99.90;;;;;;4968995;28;20045;-35
2023/12/16 03:48:07;;;;;;;6.15;1.80;;;13.60;99.90;;;;;;4967802;28;20050;-37
2023/12/16 03:50:33;;;;;;;7.40;2.05;;;13.20;99.90;;;;;;4967192;28;20050;-35
2023/12/16 03:52:58;;;;;;;7.80;1.95;;;12.80;99.90;;;;;;4969007;28;20042;-34
2023/12/16 03:55:24;;;;;;;7.97;2.10;;;12.60;99.90;;;;;;4968675;28;20069;-36
2023/12/16 03:57:50;;;;;;;8.75;1.90;;;13.20;99.90;;;;;;4965962;28;20034;-38
2023/12/16 04:00:15;;;;;;;5.68;1.83;;;13.20;99.90;;;;;;4963757;28;20142;-35
2023/12/16 04:02:41;;;;;;;9.27;2.30;;;13.20;99.90;;;;;;4969757;28;20069;-35
2023/12/16 04:05:08;;;;;;;10.15;2.55;;;13.40;99.90;;;;;;4966747;28;20049;-35
2023/12/16 04:07:33;;;;;;;8.15;2.20;;;12.40;99.90;;;;;;4951394;28;20061;-35
2023/12/16 04:10:00;;;;;;;6.93;2.40;;;12.90;99.90;;;;;;4968036;28;20855;-37
2023/12/16 04:12:25;;;;;;;9.65;2.22;;;12.60;99.90;;;;;;4965615;28;20078;-35
2023/12/16 04:14:51;;;;;;;9.02;2.38;;;13.60;99.90;;;;;;4965378;28;20070;-38
2023/12/16 04:17:16;;;;;;;11.50;2.03;;;13.20;99.90;;;;;;4966093;28;20035;-34
2023/12/16 04:19:52;;;;;;;7.80;2.13;;;12.40;99.90;;;;;;4965870;28;20042;-35
2023/12/16 04:22:18;;;;;;;9.10;2.92;;;12.80;99.90;;;;;;4968630;28;20086;-36
2023/12/16 04:24:44;;;;;;;11.35;2.08;;;13.80;99.90;;;;;;4965688;28;20039;-37
2023/12/16 04:27:10;;;;;;;10.68;2.53;;;13.20;99.90;;;;;;4969066;28;20039;-36
2023/12/16 04:29:35;;;;;;;9.70;2.17;;;13.10;99.90;;;;;;4966778;28;20892;-35
2023/12/16 04:32:02;;;;;;;8.00;1.90;;;13.80;99.90;;;;;;4969298;28;20636;-36
2023/12/16 04:34:27;;;;;;;12.25;3.00;;;12.70;99.90;;;;;;4967831;28;20053;-35
2023/12/16 04:36:53;;;;;;;6.97;2.55;;;12.70;99.90;;;;;;4968344;28;20105;-35
2023/12/16 04:39:18;;;;;;;10.25;2.35;;;12.50;99.90;;;;;;4981404;28;20133;-35
2023/12/16 04:41:44;;;;;;;7.70;2.20;;;12.80;99.90;;;;;;4984006;28;20049;-38
2023/12/16 04:44:10;;;;;;;11.52;2.42;;;13.30;99.90;;;;;;4971374;28;20112;-34
2023/12/16 04:46:35;;;;;;;10.18;2.22;;;13.10;99.90;;;;;;4933493;28;1061920;-35
2023/12/16 04:49:04;;;;;;;7.43;2.53;;;12.40;99.90;;;;;;4969703;28;20054;-36
2023/12/16 04:51:30;;;;;;;7.65;1.90;;;13.30;99.90;;;;;;4967167;28;20121;-39
2023/12/16 04:53:56;;;;;;;8.55;2.05;;;12.50;99.90;;;;;;4970855;28;20535;-38
2023/12/16 04:56:22;;;;;;;8.05;1.98;;;12.80;99.90;;;;;;4969162;28;20043;-36
2023/12/16 04:58:48;;;;;;;8.18;2.17;;;12.80;99.90;;;;;;4967502;28;20545;-35
2023/12/16 05:01:13;;;;;;;8.05;2.92;;;13.30;99.90;;;;;;4973079;28;20054;-35
2023/12/16 05:03:41;;;;;;;12.52;2.60;;;12.90;99.90;;;;;;4966794;28;20046;-38
2023/12/16 05:06:07;;;;;;;7.50;2.47;;;13.40;99.90;;;;;;4970506;28;20047;-38
2023/12/16 05:08:33;;;;;;;8.80;2.58;;;12.70;99.90;;;;;;4980335;28;20050;-36
2023/12/16 05:10:58;;;;;;;8.73;2.42;;;12.90;99.90;;;;;;4970322;28;20031;-34
2023/12/16 05:13:24;;;;;;;11.93;2.90;;;12.60;99.90;;;;;;4971492;28;20627;-35
2023/12/16 05:15:51;;;;;;;7.38;2.50;;;13.10;99.90;;;;;;4971031;28;20125;-35
2023/12/16 05:18:17;;;;;;;11.18;2.95;;;12.80;99.90;;;;;;4968567;28;20055;-37
2023/12/16 05:20:43;;;;;;;8.60;2.20;;;13.10;99.90;;;;;;4971034;28;20065;-35
2023/12/16 05:23:09;;;;;;;8.00;2.10;;;12.90;99.90;;;;;;4973737;28;20047;-38
2023/12/16 05:25:35;;;;;;;9.93;2.65;;;14.00;99.90;;;;;;4969704;28;20038;-37
2023/12/16 05:28:01;;;;;;;9.80;2.40;;;13.60;99.90;;;;;;4972560;28;20502;-37
2023/12/16 05:30:27;;;;;;;9.50;2.33;;;12.70;99.90;;;;;;4971777;28;20565;-35
2023/12/16 05:32:53;;;;;;;9.10;2.40;;;13.40;99.90;;;;;;4971831;28;20039;-37
2023/12/16 05:35:19;;;;;;;9.57;2.72;;;13.20;99.90;;;;;;4971988;28;20082;-37
2023/12/16 05:37:46;;;;;;;9.02;2.97;;;12.60;99.90;;;;;;4970426;28;20101;-35
2023/12/16 05:40:11;;;;;;;9.52;2.50;;;13.60;99.90;;;;;;4972286;28;20041;-37
2023/12/16 05:42:37;;;;;;;8.63;2.25;;;13.40;99.90;;;;;;4971258;28;20046;-34
2023/12/16 05:45:03;;;;;;;9.45;2.45;;;13.10;99.90;;;;;;4969343;28;20038;-34
2023/12/16 05:47:29;;;;;;;8.90;2.58;;;13.20;99.90;;;;;;4963428;28;20069;-34
2023/12/16 05:49:55;;;;;;;8.90;2.30;;;13.00;99.90;;;;;;4971440;28;20479;-37
2023/12/16 05:52:20;;;;;;;7.30;3.10;;;13.50;99.90;;;;;;4973450;28;20126;-35
2023/12/16 05:54:46;;;;;;;10.23;3.03;;;13.00;99.90;;;;;;4970621;28;20042;-35
2023/12/16 05:57:11;;;;;;;10.48;2.70;;;13.30;99.90;;;;;;4972360;28;20050;-35
2023/12/16 05:59:37;;;;;;;9.23;2.38;;;13.20;99.90;;;;;;4971520;28;20043;-35
2023/12/16 06:02:03;;;;;;;9.50;2.53;;;13.50;99.90;;;;;;4973225;28;20522;-36
2023/12/16 06:04:29;;;;;;;9.50;2.67;;;13.40;99.90;;;;;;4986561;28;20070;-36
2023/12/16 06:06:55;;;;;;;8.25;3.33;;;12.80;99.90;;;;;;4971220;28;20031;-39
2023/12/16 06:09:20;;;;;;;9.57;2.40;;;12.80;99.90;;;;;;4968354;28;20039;-34
2023/12/16 06:11:46;;;;;;;8.82;2.65;;;13.70;99.90;;;;;;4973579;28;20042;-34
2023/12/16 06:14:12;;;;;;;10.07;2.58;;;12.70;99.90;;;;;;4970875;28;20379;-36
2023/12/16 06:16:38;;;;;;;8.77;2.50;;;12.80;99.90;;;;;;4970307;28;20510;-39
2023/12/16 06:19:03;;;;;;;11.65;3.47;;;13.80;99.90;;;;;;4969588;28;20118;-36
2023/12/16 06:21:32;;;;;;;8.75;2.97;;;13.30;99.90;;;;;;4967722;28;20039;-35
2023/12/16 06:24:00;;;;;;;9.15;2.63;;;13.50;99.90;;;;;;4967763;28;20039;-35
2023/12/16 06:26:26;;;;;;;8.98;2.92;;;13.30;99.90;;;;;;4971393;28;20596;-37
2023/12/16 06:28:52;;;;;;;11.00;3.08;;;12.80;99.90;;;;;;4970938;28;20118;-35
2023/12/16 06:31:18;;;;;;;11.68;2.53;;;13.00;99.90;;;;;;4969776;28;20038;-35
2023/12/16 06:33:44;;;;;;;8.90;2.83;;;13.40;99.90;;;;;;4969056;28;20494;-35
2023/12/16 06:36:10;;;;;;;8.82;2.78;;;13.10;99.90;;;;;;4984762;28;20053;-34
2023/12/16 06:38:36;;;;;;;14.00;3.42;;;13.00;99.90;;;;;;4968766;28;20081;-35
2023/12/16 06:41:03;;;;;;;10.27;3.00;;;13.00;99.90;;;;;;4969172;28;20383;-35
2023/12/16 06:43:28;;;;;;;10.80;3.38;;;13.30;99.90;;;;;;4971477;28;20514;-35
2023/12/16 06:45:54;;;;;;;9.27;3.08;;;13.90;99.90;;;;;;4970208;28;20110;-35
2023/12/16 06:48:23;;;;;;;10.90;2.97;;;13.10;99.90;;;;;;4966406;28;20049;-38
2023/12/16 06:50:49;;;;;;;8.82;2.70;;;13.30;99.90;;;;;;4949682;28;20039;-37
2023/12/16 06:53:16;;;;;;;12.02;4.13;;;13.70;99.90;;;;;;4969980;28;20073;-37
2023/12/16 06:55:41;;;;;;;11.30;3.15;;;13.30;99.90;;;;;;4982612;28;20061;-36
2023/12/16 06:58:07;;;;;;;12.15;3.28;;;13.90;99.90;;;;;;4970770;28;20043;-37
2023/12/16 07:00:33;;;;;;;11.73;3.10;;;13.60;99.90;;;;;;4969029;28;20395;-35
2023/12/16 07:02:59;;;;;;;9.27;3.05;;;13.00;99.90;;;;;;4968321;28;20045;-35
2023/12/16 07:05:25;;;;;;;11.82;3.25;;;13.20;99.90;;;;;;4966969;28;20091;-35
2023/12/16 07:07:51;;;;;;;9.07;3.08;;;13.80;99.90;;;;;;4969617;28;20086;-36
2023/12/16 07:10:16;;;;;;;10.00;2.63;;;14.20;99.90;;;;;;4971019;28;20118;-38
2023/12/16 07:12:42;;;;;;;9.73;3.33;;;13.90;99.90;;;;;;4971726;28;20517;-35
2023/12/16 07:15:08;;;;;;;11.95;3.22;;;13.70;99.90;;;;;;4966449;28;20043;-35
2023/12/16 07:17:34;;;;;;;10.75;3.95;;;13.90;99.90;;;;;;4970651;28;20058;-35
2023/12/16 07:20:00;;;;;;;7.75;2.80;;;13.30;99.90;;;;;;4987930;28;20441;-34
2023/12/16 07:22:27;;;;;;;14.93;4.60;;;13.20;99.90;;;;;;4969726;28;20413;-35
2023/12/16 07:24:53;;;;;;;10.55;3.38;;;13.50;99.90;;;;;;4970106;28;20042;-37
2023/12/16 07:27:18;;;;;;;9.75;2.85;;;13.80;99.90;;;;;;4962396;28;20129;-35
2023/12/16 07:29:44;;;;;;;19.05;3.83;;;13.70;99.90;;;;;;4967517;28;20558;-39
2023/12/16 07:32:10;;;;;;;32.95;9.35;;;14.00;99.90;;;;;;4968806;28;20035;-35
2023/12/16 07:34:35;;;;;;;37.45;10.95;;;14.00;99.90;;;;;;4967386;28;20034;-41
2023/12/16 07:37:01;;;;;;;54.28;12.85;;;14.10;99.90;;;;;;4967187;28;20669;-35
2023/12/16 07:39:26;;;;;;;68.90;20.08;;;13.70;99.90;;;;;;4966699;28;20192;-36
2023/12/16 07:41:52;;;;;;;57.28;16.38;;;14.00;99.90;;;;;;4966646;28;20031;-37
2023/12/16 07:44:18;;;;;;;45.58;12.93;;;14.30;99.90;;;;;;4957937;28;20566;-36
2023/12/16 07:46:43;;;;;;;30.15;9.45;;;13.70;99.90;;;;;;4966935;28;20121;-39
2023/12/16 07:49:10;;;;;;;28.92;9.07;;;14.30;99.90;;;;;;4966092;28;20041;-35
2023/12/16 07:51:36;;;;;;;32.83;9.32;;;14.50;99.90;;;;;;4963720;28;20070;-35
2023/12/16 07:54:02;;;;;;;29.33;9.00;;;14.10;99.90;;;;;;4963760;28;20545;-38
2023/12/16 07:56:28;;;;;;;33.83;9.43;;;14.60;99.90;;;;;;4959592;28;20089;-35
2023/12/16 07:58:54;;;;;;;24.92;8.30;;;14.20;99.90;;;;;;4958030;28;20410;-35
2023/12/16 08:01:20;;;;;;;27.83;8.95;;;14.30;99.90;;;;;;4956000;28;20391;-37
2023/12/16 08:03:47;;;;;;;24.42;7.05;;;14.10;99.90;;;;;;4958987;28;20038;-35
2023/12/16 08:06:16;;;;;;;23.10;8.00;;;14.40;99.90;;;;;;4959149;28;20113;-35
2023/12/16 08:08:43;;;;;;;25.90;8.00;;;14.30;99.90;;;;;;4954778;28;20050;-35
2023/12/16 08:11:09;;;;;;;26.00;7.75;;;13.90;99.90;;;;;;4960757;28;20514;-35
2023/12/16 08:13:35;;;;;;;21.73;6.63;;;14.40;99.90;;;;;;4958911;28;20097;-35
2023/12/16 08:16:04;;;;;;;17.30;6.97;;;15.10;99.90;;;;;;4957170;28;20191;-35
2023/12/16 08:18:30;;;;;;;22.88;7.72;;;14.00;99.90;;;;;;4972476;28;20089;-36
2023/12/16 08:20:56;;;;;;;25.35;6.25;;;14.20;99.90;;;;;;4959327;28;20062;-37
2023/12/16 08:23:21;;;;;;;24.25;7.10;;;14.10;99.90;;;;;;4958473;28;20063;-35
2023/12/16 08:25:47;;;;;;;26.30;7.53;;;13.70;99.90;;;;;;4956773;28;20027;-39
2023/12/16 08:28:13;;;;;;;22.48;7.43;;;14.40;99.90;;;;;;4963549;28;20042;-35
2023/12/16 08:30:39;;;;;;;23.00;7.32;;;14.20;99.90;;;;;;4957317;28;20043;-35
2023/12/16 08:33:05;;;;;;;30.08;8.50;;;14.50;99.90;;;;;;4967639;28;20573;-35
2023/12/16 08:35:31;;;;;;;27.17;8.23;;;14.40;99.90;;;;;;4980029;28;20122;-37
2023/12/16 08:37:56;;;;;;;28.30;7.70;;;14.40;99.90;;;;;;4967285;28;20039;-35
2023/12/16 08:40:24;;;;;;;31.80;8.45;;;13.80;99.90;;;;;;4967343;28;20047;-34
2023/12/16 08:42:50;;;;;;;22.08;6.93;;;14.60;99.90;;;;;;4966747;28;20584;-35
2023/12/16 08:45:15;;;;;;;26.30;7.15;;;14.40;99.90;;;;;;4977507;28;20059;-36
2023/12/16 08:47:41;;;;;;;30.88;7.55;;;14.10;1.00;;;;;;4963502;28;20041;-41
2023/12/16 08:50:08;;;;;;;22.67;7.18;;;13.60;99.90;;;;;;4964052;28;20117;-38
2023/12/16 08:52:34;;;;;;;22.95;7.05;;;14.40;99.90;;;;;;4963015;28;20054;-37
2023/12/16 08:55:01;;;;;;;25.50;7.68;;;14.30;1.00;;;;;;4965354;28;20093;-36
2023/12/16 08:57:29;;;;;;;22.63;6.75;;;14.80;1.00;;;;;;4967399;28;20055;-36
2023/12/16 08:59:55;;;;;;;18.25;5.20;;;14.60;1.00;;;;;;4962812;28;20489;-37
2023/12/16 09:02:21;;;;;;;18.33;5.57;;;14.60;99.90;;;;;;4966735;28;20045;-36
2023/12/16 09:04:47;;;;;;;19.20;6.97;;;15.30;1.00;;;;;;4964970;28;20472;-37
2023/12/16 09:07:13;;;;;;;18.45;6.13;;;14.70;1.00;;;;;;4965943;28;20039;-35
2023/12/16 09:09:39;;;;;;;22.25;6.13;;;14.30;1.00;;;;;;4966312;28;20141;-36
2023/12/16 09:12:06;;;;;;;19.60;6.03;;;14.70;99.90;;;;;;4970608;28;20041;-35
2023/12/16 09:14:32;;;;;;;19.05;5.88;;;14.10;1.00;;;;;;4964294;28;20070;-35
2023/12/16 09:16:58;;;;;;;19.27;6.05;;;14.20;1.00;;;;;;4964959;28;20038;-35
2023/12/16 09:19:23;;;;;;;16.27;5.35;;;14.90;1.00;;;;;;4967765;28;20430;-35
2023/12/16 09:21:49;;;;;;;15.27;4.95;;;14.10;99.90;;;;;;4965040;28;20043;-35
2023/12/16 09:24:15;;;;;;;16.83;5.13;;;14.50;1.00;;;;;;4966631;28;20039;-37
2023/12/16 09:26:41;;;;;;;15.68;4.90;;;14.80;1.00;;;;;;4968060;28;20277;-35
2023/12/16 09:29:07;;;;;;;17.42;5.53;;;14.30;99.90;;;;;;4966397;28;20057;-40
2023/12/16 09:31:33;;;;;;;14.60;5.15;;;14.90;1.00;;;;;;4986461;28;20521;-35
2023/12/16 09:33:59;;;;;;;18.20;4.97;;;14.70;99.90;;;;;;4971456;28;20043;-35
2023/12/16 09:36:27;;;;;;;15.20;4.57;;;14.60;99.90;;;;;;4972272;28;20043;-35
2023/12/16 09:39:02;;;;;;;16.65;5.45;;;14.30;1.00;;;;;;4971037;28;20053;-38
2023/12/16 09:41:30;;;;;;;18.08;5.15;;;14.40;1.00;;;;;;4974817;28;20043;-37
2023/12/16 09:44:00;;;;;;;12.82;4.63;;;14.30;1.00;;;;;;4972977;28;20323;-35
2023/12/16 09:46:30;;;;;;;16.23;5.55;;;14.50;99.90;;;;;;4970852;28;20045;-37
2023/12/16 09:48:56;;;;;;;14.88;4.35;;;13.80;99.90;;;;;;4971078;28;20035;-35
2023/12/16 09:51:23;;;;;;;14.18;4.47;;;14.30;1.00;;;;;;4971792;28;20110;-35
2023/12/16 09:53:50;;;;;;;14.60;4.95;;;14.20;1.00;;;;;;4954021;28;20042;-37
2023/12/16 09:56:16;;;;;;;11.98;4.22;;;14.10;1.00;;;;;;4971019;28;20494;-35
2023/12/16 09:58:44;;;;;;;14.00;4.30;;;14.10;1.00;;;;;;4972565;28;20043;-34
2023/12/16 10:01:11;;;;;;;13.73;3.85;;;14.60;99.90;;;;;;4972233;28;20387;-36
2023/12/16 10:03:37;;;;;;;12.82;4.57;;;13.80;99.90;;;;;;4972865;28;20038;-35
2023/12/16 10:06:05;;;;;;;16.60;4.95;;;14.50;99.90;;;;;;4971458;28;20084;-34
2023/12/16 10:08:31;;;;;;;12.07;4.57;;;14.10;99.90;;;;;;4971493;28;20046;-36
2023/12/16 10:11:00;;;;;;;12.82;4.82;;;14.60;99.90;;;;;;4971411;28;20038;-35
2023/12/16 10:13:30;;;;;;;12.07;5.47;;;13.50;99.90;;;;;;4976283;28;20326;-34
2023/12/16 10:15:57;;;;;;;10.65;3.70;;;14.40;99.90;;;;;;4971068;28;20042;-37
2023/12/16 10:18:22;;;;;;;10.10;4.25;;;13.80;99.90;;;;;;4972435;28;20070;-37
2023/12/16 10:20:48;;;;;;;12.32;3.90;;;13.50;99.90;;;;;;4971394;28;20525;-34
2023/12/16 10:23:15;;;;;;;12.02;3.97;;;14.30;99.90;;;;;;4971874;28;20039;-35
2023/12/16 10:25:41;;;;;;;11.32;3.90;;;14.20;99.90;;;;;;4979902;28;20038;-35
2023/12/16 10:28:07;;;;;;;12.15;4.35;;;13.70;99.90;;;;;;4953939;28;20049;-37
2023/12/16 10:30:33;;;;;;;9.65;3.72;;;14.00;99.90;;;;;;4972130;28;20035;-34
2023/12/16 10:33:03;;;;;;;9.20;3.45;;;14.20;99.90;;;;;;4975467;28;20516;-35
2023/12/16 10:35:31;;;;;;;9.15;3.95;;;13.40;99.90;;;;;;4972186;28;20453;-37
2023/12/16 10:37:57;;;;;;;12.73;4.63;;;14.00;99.90;;;;;;4968030;28;20045;-34
2023/12/16 10:40:23;;;;;;;9.65;3.97;;;13.40;99.90;;;;;;4971193;28;20043;-34
2023/12/16 10:42:49;;;;;;;12.00;4.05;;;13.80;99.90;;;;;;4972147;28;20039;-35
2023/12/16 10:45:15;;;;;;;10.38;3.88;;;13.60;99.90;;;;;;4970691;28;20056;-34
2023/12/16 10:47:41;;;;;;;10.15;3.72;;;13.70;99.90;;;;;;4971825;28;20070;-35
2023/12/16 10:50:07;;;;;;;8.10;3.38;;;13.90;99.90;;;;;;4971284;28;20041;-36
2023/12/16 10:52:49;;;;;;;8.60;3.42;;;14.00;99.90;;;;;;4971498;28;20052;-36
2023/12/16 10:55:28;;;;;;;11.88;4.82;;;14.10;99.90;;;;;;4969762;28;20506;-37
2023/12/16 10:58:18;;;;;;;11.57;4.00;;;13.50;99.90;;;;;;4969334;28;20489;-39
2023/12/16 11:00:48;;;;;;;9.88;3.63;;;14.30;99.90;;;;;;4966591;28;20046;-35
2023/12/16 11:03:32;;;;;;;9.35;3.72;;;13.90;99.90;;;;;;4963243;28;20055;-37
2023/12/16 11:06:21;;;;;;;;;;;13.90;99.90;;;;;;4966783;28;20038;-34
2023/12/16 11:08:47;;;;;;;9.88;3.40;;;14.00;99.90;;;;;;4967106;28;19925;-34
2023/12/16 11:11:16;;;;;;;10.75;3.83;;;13.60;99.90;;;;;;4962501;28;20082;-36
2023/12/16 11:13:43;;;;;;;8.68;3.20;;;13.30;99.90;;;;;;4975647;28;20470;-34
2023/12/16 11:16:25;;;;;;;9.52;3.17;;;14.10;99.90;;;;;;4969200;28;20094;-35
2023/12/16 11:18:52;;;;;;;11.27;3.95;;;13.30;99.90;;;;;;4969554;28;20041;-38
2023/12/16 11:21:20;;;;;;;9.50;3.60;;;14.00;99.90;;;;;;4970143;28;20509;-37
2023/12/16 11:23:48;;;;;;;8.63;3.60;;;13.80;99.90;;;;;;4969667;28;20054;-35
2023/12/16 11:26:16;;;;;;;8.93;3.50;;;14.00;99.90;;;;;;4963778;28;20053;-35
2023/12/16 11:28:41;;;;;;;9.15;3.20;;;13.40;99.90;;;;;;4970240;28;20509;-36
2023/12/16 11:31:10;;;;;;;9.13;3.60;;;13.70;99.90;;;;;;4967274;28;20047;-34
2023/12/16 11:33:46;;;;;;;7.32;3.55;;;13.90;99.90;;;;;;4971039;28;20470;-35
2023/12/16 11:36:14;;;;;;;6.72;3.13;;;13.70;99.90;;;;;;4967793;28;20046;-36
2023/12/16 11:38:46;;;;;;;7.80;3.03;;;13.60;99.90;;;;;;4971021;28;20039;-34
2023/12/16 11:41:37;;;;;;;7.90;3.28;;;14.00;99.90;;;;;;4970357;28;20090;-34
2023/12/16 11:44:03;;;;;;;12.55;3.10;;;13.60;99.90;;;;;;4970303;28;20043;-35
2023/12/16 11:46:41;;;;;;;6.88;2.70;;;13.10;99.90;;;;;;4970576;28;20183;-35
2023/12/16 11:49:10;;;;;;;8.85;3.03;;;13.80;99.90;;;;;;4970120;28;20046;-38
2023/12/16 11:51:38;;;;;;;7.72;2.85;;;13.20;99.90;;;;;;4986403;28;20054;-36
2023/12/16 11:54:05;;;;;;;9.15;3.10;;;13.50;99.90;;;;;;4970057;28;20458;-35
2023/12/16 11:56:31;;;;;;;9.10;3.03;;;13.20;99.90;;;;;;4968956;28;20081;-37
2023/12/16 11:59:00;;;;;;;8.75;2.90;;;13.70;99.90;;;;;;4970980;28;20062;-34
2023/12/16 12:01:27;;;;;;;8.73;3.35;;;13.10;99.90;;;;;;4971249;28;20027;-34
2023/12/16 12:03:54;;;;;;;9.60;3.95;;;13.80;99.90;;;;;;4970435;28;20042;-36
2023/12/16 12:06:20;;;;;;;6.65;2.63;;;13.70;99.90;;;;;;4968982;28;20117;-35
2023/12/16 12:08:46;;;;;;;9.85;2.88;;;13.40;99.90;;;;;;4970097;28;20038;-35
2023/12/16 12:11:23;;;;;;;8.75;3.13;;;14.20;99.90;;;;;;4969458;28;20054;-34
2023/12/16 12:13:52;;;;;;;6.97;3.45;;;13.20;99.90;;;;;;4968844;28;20043;-35
2023/12/16 12:16:18;;;;;;;7.60;2.70;;;13.30;99.90;;;;;;4969460;28;20421;-35
2023/12/16 12:18:44;;;;;;;8.82;2.80;;;12.90;99.90;;;;;;4970775;28;20038;-35
2023/12/16 12:21:13;;;;;;;9.73;3.63;;;13.50;99.90;;;;;;4968045;28;20049;-37
2023/12/16 12:23:40;;;;;;;8.25;2.53;;;13.20;99.90;;;;;;4970921;28;20031;-34
2023/12/16 12:26:06;;;;;;;7.43;2.63;;;13.10;99.90;;;;;;4952176;28;20078;-38
2023/12/16 12:28:32;;;;;;;9.75;3.40;;;13.00;99.90;;;;;;4964503;28;20474;-34
2023/12/16 12:31:08;;;;;;;14.15;3.25;;;14.10;99.90;;;;;;4970298;28;20042;-36
2023/12/16 12:33:36;;;;;;;8.98;3.03;;;13.40;99.90;;;;;;4963424;28;20050;-36
2023/12/16 12:36:03;;;;;;;8.25;3.15;;;12.90;99.90;;;;;;4968125;28;20046;-35
2023/12/16 12:38:32;;;;;;;7.80;3.28;;;12.90;99.90;;;;;;4967876;28;20418;-34
2023/12/16 12:41:04;;;;;;;7.22;2.83;;;12.90;99.90;;;;;;4967845;28;20053;-35